RAF Akrotiri Cyprus CY
ICAO: LCRA
IATA: AKT
Category: Medium
Scheduled Services: No

Elevation: 76 ft
TransAlt. 8000 ft.

Airport Communications:
APP:122.1
ATIS:28.82
DIRECTOR:122.1
GND:26.1
OPS:23.405
TWR:122.1

LCRA Zoom In..

If you have problems with the map follow the link
https://www.worldairports.se/pages/airport.php?
ICAO=LCRA

Runways:

(A) RW 10 length 8990 ft width 148 ft
---- / hdg 104

(B) RW 28 length 8990 ft width 148 ft
ILS 109.70 / hdg 284

Location; LCRA
Day. 25 / Time. 22.50 Zulu
* QNH: 1029
* Temperature: 09° c. 48.2°f.
* Wind from: 050° Speed 01 kn.
Dewpoint: 05° c.
Visibility: 10 km or more.
Clouds: Overcast 4000 ft.

LCRA 252250Z 05001KT 9999 OVC040 09/05 Q1029 RMK BLU


Wind From 050°
Speed 01 kn.

 
 
jpsmedia worldairports.se 2020   terms of use